EGUN

RAF Mildenhall Airport

Mildenhall, United Kingdom
METAR EGUN 251456Z AUTO 21011KT 9999 CLR 17/05 A3056 RMK AO2 SLP352 T01710051 57024 .
Observed Flight Rules
Sep-25 @ 14:56 UTC (29 minutes ago) Visual Flight Rules
Wind Visibility Clouds
210° at 11 knots 10,000+ meters
  • Clear skies
Temperatures Readings
Current 17°C / 63°F
Dewpoint 5°C / 41°F
Humidity 45%
Altimeter 30.56" Hg
Pressure 1035.2 hPa
Elevation 10
METAR EGUN 251456Z AUTO 21011KT 9999 CLR 17/05 A3056 RMK AO2 SLP352 T01710051 57024 .
Observed Flight Rules
Sep-25 @ 14:56 UTC
(29 minutes ago)
VFR
Wind Visibility
210° at 11 knots 10,000+ meters
Clouds
  • Clear skies
Temperature Dewpoint
17°C / 63°F 5°C / 41°F
Humidity Altimeter Pressure
45% 30.56" Hg 1035.2 hPa